createdAt,value
2023-02-24T00:00:55.049Z,9.747505
2023-02-24T00:01:55.050Z,9.747503
2023-02-24T00:02:55.033Z,9.747455
2023-02-24T00:03:55.024Z,9.747428
2023-02-24T00:04:55.040Z,9.747452
2023-02-24T00:05:55.018Z,9.747411
2023-02-24T00:06:55.000Z,9.747441
2023-02-24T00:07:54.992Z,9.747503
2023-02-24T00:08:54.978Z,9.747378
2023-02-24T00:09:55.009Z,9.747439
2023-02-24T00:10:54.969Z,9.747466
2023-02-24T00:11:54.961Z,9.747426
2023-02-24T00:12:54.953Z,9.747399
2023-02-24T00:13:54.943Z,9.747441
2023-02-24T00:14:54.970Z,9.747410
2023-02-24T00:15:54.938Z,9.747406
2023-02-24T00:16:55.001Z,9.747452
2023-02-24T00:17:54.924Z,9.747308
2023-02-24T00:18:54.897Z,9.747454
2023-02-24T00:19:54.921Z,9.747355
2023-02-24T00:20:54.881Z,9.747374
2023-02-24T00:21:54.913Z,9.747457
2023-02-24T00:22:54.875Z,9.747445
2023-02-24T00:23:54.856Z,9.747460
2023-02-24T00:24:54.884Z,9.747452
2023-02-24T00:25:54.847Z,9.747465
2023-02-24T00:26:54.837Z,9.747510
2023-02-24T00:27:54.832Z,9.747457
2023-02-24T00:28:54.823Z,9.747516
2023-02-24T00:29:54.849Z,9.747529
2023-02-24T00:30:54.923Z,9.747496
2023-02-24T00:31:54.931Z,9.747448
2023-02-24T00:32:54.826Z,9.747476
2023-02-24T00:33:54.786Z,9.747466
2023-02-24T00:34:55.827Z,9.747466
2023-02-24T00:35:54.789Z,9.747539
2023-02-24T00:36:54.775Z,9.747592
2023-02-24T00:37:54.819Z,9.747537
2023-02-24T00:38:54.757Z,9.747543
2023-02-24T00:39:54.779Z,9.747495
2023-02-24T00:40:54.746Z,9.747422
2023-02-24T00:41:54.741Z,9.747415
2023-02-24T00:42:54.738Z,9.747419
2023-02-24T00:43:54.727Z,9.747433
2023-02-24T00:44:54.788Z,9.747368
2023-02-24T00:45:54.750Z,9.747395
2023-02-24T00:46:54.707Z,9.747445
2023-02-24T00:47:54.697Z,9.747362
2023-02-24T00:48:54.691Z,9.747334
2023-02-24T00:49:54.706Z,9.747360
2023-02-24T00:50:54.679Z,9.747325
2023-02-24T00:51:54.663Z,9.747414
2023-02-24T00:52:54.655Z,9.747321
2023-02-24T00:53:54.654Z,9.747342
2023-02-24T00:54:54.662Z,9.747249
2023-02-24T00:55:54.638Z,9.747364
2023-02-24T00:56:54.634Z,9.747300
2023-02-24T00:57:54.621Z,9.747351
2023-02-24T00:58:54.618Z,9.747321
2023-02-24T00:59:54.667Z,9.747220
2023-02-24T01:00:54.602Z,9.747305
2023-02-24T01:01:54.747Z,9.747295
2023-02-24T01:02:54.585Z,9.747275
2023-02-24T01:03:54.634Z,9.747413
2023-02-24T01:04:54.602Z,9.747330
2023-02-24T01:05:54.580Z,9.747380
2023-02-24T01:06:54.553Z,9.747433
2023-02-24T01:07:54.546Z,9.747394
2023-02-24T01:08:54.547Z,9.747406
2023-02-24T01:09:54.560Z,9.747352
2023-02-24T01:10:54.525Z,9.747282
2023-02-24T01:11:54.552Z,9.747405
2023-02-24T01:12:54.508Z,9.747404
2023-02-24T01:13:54.502Z,9.747384
2023-02-24T01:14:54.529Z,9.747408
2023-02-24T01:15:54.493Z,9.747414
2023-02-24T01:16:54.482Z,9.747379
2023-02-24T01:17:54.479Z,9.747449
2023-02-24T01:18:54.472Z,9.747386
2023-02-24T01:19:54.459Z,9.747406
2023-02-24T01:20:54.481Z,9.747377
2023-02-24T01:21:54.444Z,9.747363
2023-02-24T01:22:54.463Z,9.747389
2023-02-24T01:23:54.436Z,9.747416
2023-02-24T01:24:54.427Z,9.747453
2023-02-24T01:25:54.440Z,9.747356
2023-02-24T01:26:54.409Z,9.747422
2023-02-24T01:27:54.410Z,9.747603
2023-02-24T01:28:54.397Z,9.747486
2023-02-24T01:29:54.405Z,9.747454
2023-02-24T01:30:54.511Z,9.747390
2023-02-24T01:31:54.489Z,9.747442
2023-02-24T01:32:54.524Z,9.747399
2023-02-24T01:33:54.352Z,9.747328
2023-02-24T01:34:54.346Z,9.747322
2023-02-24T01:35:54.364Z,9.747318
2023-02-24T01:36:54.353Z,9.747399
2023-02-24T01:37:54.337Z,9.747343
2023-02-24T01:38:54.319Z,9.747300
2023-02-24T01:39:54.308Z,9.747319
2023-02-24T01:40:54.333Z,9.747358
2023-02-24T01:41:54.305Z,9.747348
2023-02-24T01:42:54.296Z,9.747399
2023-02-24T01:43:54.284Z,9.747239
2023-02-24T01:44:54.284Z,9.747086
2023-02-24T01:45:54.298Z,9.747212
2023-02-24T01:46:54.307Z,9.747242
2023-02-24T01:47:54.273Z,9.747420
2023-02-24T01:48:54.253Z,9.747331
2023-02-24T01:49:54.237Z,9.747333
2023-02-24T01:50:54.253Z,9.747336
2023-02-24T01:51:54.226Z,9.747358
2023-02-24T01:52:54.219Z,9.747332
2023-02-24T01:53:54.214Z,9.747313
2023-02-24T01:54:54.204Z,9.747406
2023-02-24T01:55:54.225Z,9.747496
2023-02-24T01:56:54.188Z,9.747458
2023-02-24T01:57:54.215Z,9.747416
2023-02-24T01:58:54.176Z,9.747289
2023-02-24T01:59:54.173Z,9.747298
2023-02-24T02:00:54.191Z,9.747357
2023-02-24T02:01:54.268Z,9.747332
2023-02-24T02:02:54.207Z,9.747388
2023-02-24T02:03:54.142Z,9.747537
2023-02-24T02:04:54.144Z,9.747430
2023-02-24T02:05:54.163Z,9.747214
2023-02-24T02:06:54.119Z,9.747339
2023-02-24T02:07:54.108Z,9.747479
2023-02-24T02:08:54.105Z,9.747518
2023-02-24T02:09:54.096Z,9.747455
2023-02-24T02:10:54.120Z,9.747443
2023-02-24T02:11:54.082Z,9.747491
2023-02-24T02:12:54.074Z,9.747494
2023-02-24T02:13:54.133Z,9.747442
2023-02-24T02:14:54.057Z,9.747456
2023-02-24T02:15:54.110Z,9.747443
2023-02-24T02:16:54.041Z,9.747510
2023-02-24T02:17:54.032Z,9.747475
2023-02-24T02:18:54.027Z,9.747480
2023-02-24T02:19:54.018Z,9.747530
2023-02-24T02:20:54.039Z,9.747526
2023-02-24T02:21:54.000Z,9.747531
2023-02-24T02:22:53.992Z,9.747520
2023-02-24T02:23:53.993Z,9.747628
2023-02-24T02:24:54.011Z,9.747445
2023-02-24T02:25:54.005Z,9.747369
2023-02-24T02:26:53.978Z,9.747485
2023-02-24T02:27:53.969Z,9.747479
2023-02-24T02:28:54.043Z,9.747536
2023-02-24T02:29:53.945Z,9.747517
2023-02-24T02:30:53.988Z,9.747508
2023-02-24T02:31:54.028Z,9.747476
2023-02-24T02:32:53.964Z,9.747434
2023-02-24T02:33:53.914Z,9.747313
2023-02-24T02:34:53.910Z,9.747268
2023-02-24T02:35:53.929Z,9.747391
2023-02-24T02:36:53.895Z,9.747410
2023-02-24T02:37:53.896Z,9.747403
2023-02-24T02:38:53.882Z,9.747406
2023-02-24T02:39:53.874Z,9.747396
2023-02-24T02:40:53.889Z,9.747363
2023-02-24T02:41:53.880Z,9.747334
2023-02-24T02:42:53.852Z,9.747454
2023-02-24T02:43:53.848Z,9.747489
2023-02-24T02:44:53.834Z,9.747502
2023-02-24T02:45:53.860Z,9.747439
2023-02-24T02:46:53.852Z,9.747447
2023-02-24T02:47:53.858Z,9.747487
2023-02-24T02:48:53.847Z,9.747453
2023-02-24T02:49:53.797Z,9.747369
2023-02-24T02:50:53.797Z,9.747487
2023-02-24T02:51:53.840Z,9.747502
2023-02-24T02:52:53.769Z,9.747434
2023-02-24T02:53:53.764Z,9.747478
2023-02-24T02:54:53.752Z,9.747554
2023-02-24T02:55:53.752Z,9.747461
2023-02-24T02:56:53.766Z,9.747489
2023-02-24T02:57:53.726Z,9.747472
2023-02-24T02:58:53.733Z,9.747482
2023-02-24T02:59:53.726Z,9.747450
2023-02-24T03:00:53.732Z,9.747507
2023-02-24T03:01:53.724Z,9.747477
2023-02-24T03:02:53.703Z,9.747462
2023-02-24T03:03:53.698Z,9.747512
2023-02-24T03:04:53.765Z,9.747543
2023-02-24T03:05:53.709Z,9.747568
2023-02-24T03:06:53.697Z,9.747522
2023-02-24T03:07:53.650Z,9.747487
2023-02-24T03:08:53.656Z,9.747539
2023-02-24T03:09:53.648Z,9.747532
2023-02-24T03:10:53.642Z,9.747480
2023-02-24T03:11:53.651Z,9.747461
2023-02-24T03:12:53.616Z,9.747474
2023-02-24T03:13:53.608Z,9.747420
2023-02-24T03:14:53.608Z,9.747395
2023-02-24T03:15:53.592Z,9.747468
2023-02-24T03:16:53.676Z,9.747439
2023-02-24T03:17:53.599Z,9.747469
2023-02-24T03:18:53.569Z,9.747540
2023-02-24T03:19:53.566Z,9.747586
2023-02-24T03:20:53.571Z,9.747548
2023-02-24T03:21:53.579Z,9.747252
2023-02-24T03:22:53.549Z,9.747462
2023-02-24T03:23:53.542Z,9.747516
2023-02-24T03:24:53.556Z,9.747499
2023-02-24T03:25:53.525Z,9.747504
2023-02-24T03:26:53.548Z,9.747524
2023-02-24T03:27:53.514Z,9.747437
2023-02-24T03:28:53.501Z,9.747377
2023-02-24T03:29:53.497Z,9.747335
2023-02-24T03:30:53.538Z,9.747242
2023-02-24T03:31:53.623Z,9.747279
2023-02-24T03:32:53.621Z,9.747299
2023-02-24T03:33:53.472Z,9.747274
2023-02-24T03:34:53.461Z,9.747223
2023-02-24T03:35:53.455Z,9.747421
2023-02-24T03:36:53.474Z,9.747242
2023-02-24T03:37:53.440Z,9.747401
2023-02-24T03:38:53.421Z,9.747461
2023-02-24T03:39:54.438Z,9.747409
2023-02-24T03:40:53.471Z,9.747374
2023-02-24T03:41:53.418Z,9.747404
2023-02-24T03:42:53.431Z,9.747336
2023-02-24T03:43:53.396Z,9.747252
2023-02-24T03:44:53.395Z,9.747368
2023-02-24T03:45:53.404Z,9.747409
2023-02-24T03:46:53.373Z,9.747473
2023-02-24T03:47:53.393Z,9.747485
2023-02-24T03:48:53.367Z,9.747449
2023-02-24T03:49:53.358Z,9.747392
2023-02-24T03:50:53.341Z,9.747287
2023-02-24T03:51:53.332Z,9.747272
2023-02-24T03:52:53.353Z,9.747252
2023-02-24T03:53:53.329Z,9.747338
2023-02-24T03:54:53.316Z,9.747381
2023-02-24T03:55:53.303Z,9.747381
2023-02-24T03:56:53.294Z,9.747335
2023-02-24T03:57:53.316Z,9.747192
2023-02-24T03:58:53.271Z,9.747246
2023-02-24T03:59:53.269Z,9.747293
2023-02-24T04:00:53.269Z,9.747346
2023-02-24T04:01:53.256Z,9.747464
2023-02-24T04:02:53.279Z,9.747397
2023-02-24T04:03:53.261Z,9.747355
2023-02-24T04:04:53.262Z,9.747389
2023-02-24T04:05:53.229Z,9.747402
2023-02-24T04:06:55.782Z,9.747561
2023-02-24T04:07:54.247Z,9.747343
2023-02-24T04:08:53.195Z,9.747339
2023-02-24T04:09:53.198Z,9.747393
2023-02-24T04:10:53.188Z,9.747424
2023-02-24T04:11:53.176Z,9.747538
2023-02-24T04:12:53.321Z,9.747386
2023-02-24T04:13:53.172Z,9.747382
2023-02-24T04:14:53.194Z,9.747427
2023-02-24T04:15:53.186Z,9.747305
2023-02-24T04:16:53.146Z,9.747459
2023-02-24T04:17:53.183Z,9.747211
2023-02-24T04:18:53.120Z,9.747364
2023-02-24T04:19:53.121Z,9.747310
2023-02-24T04:20:53.214Z,9.747436
2023-02-24T04:21:53.100Z,9.747431
2023-02-24T04:22:53.114Z,9.747280
2023-02-24T04:23:53.079Z,9.747296
2023-02-24T04:24:53.068Z,9.747286
2023-02-24T04:25:53.070Z,9.747434
2023-02-24T04:26:53.062Z,9.747410
2023-02-24T04:27:53.086Z,9.747452
2023-02-24T04:28:53.058Z,9.747368
2023-02-24T04:29:53.066Z,9.747345
2023-02-24T04:30:53.164Z,9.747335
2023-02-24T04:31:53.242Z,9.747341
2023-02-24T04:32:53.124Z,9.747345
2023-02-24T04:33:53.032Z,9.747186
2023-02-24T04:34:53.004Z,9.747044
2023-02-24T04:35:52.996Z,9.747071
2023-02-24T04:36:52.991Z,9.747106
2023-02-24T04:37:52.989Z,9.747347
2023-02-24T04:38:53.000Z,9.747297
2023-02-24T04:39:52.974Z,9.747405
2023-02-24T04:40:52.965Z,9.747223
2023-02-24T04:41:52.955Z,9.747172
2023-02-24T04:42:52.957Z,9.747236
2023-02-24T04:43:52.985Z,9.747185
2023-02-24T04:44:52.964Z,9.747243
2023-02-24T04:45:52.943Z,9.747348
2023-02-24T04:46:52.908Z,9.747266
2023-02-24T04:47:52.904Z,9.747240
2023-02-24T04:48:52.941Z,9.747239
2023-02-24T04:49:52.895Z,9.747183
2023-02-24T04:50:52.883Z,9.747216
2023-02-24T04:51:52.903Z,9.747320
2023-02-24T04:52:52.872Z,9.747272
2023-02-24T04:53:52.880Z,9.747162
2023-02-24T04:54:53.862Z,9.747275
2023-02-24T04:55:52.853Z,9.747241
2023-02-24T04:56:52.849Z,9.747251
2023-02-24T04:57:52.833Z,9.747272
2023-02-24T04:58:52.858Z,9.747256
2023-02-24T04:59:52.819Z,9.747199
2023-02-24T05:00:53.127Z,9.747258
2023-02-24T05:01:52.811Z,9.747281
2023-02-24T05:02:53.115Z,9.747284
2023-02-24T05:03:52.849Z,9.747377
2023-02-24T05:04:52.829Z,9.747462
2023-02-24T05:05:52.783Z,9.747467
2023-02-24T05:06:52.776Z,9.747208
2023-02-24T05:07:52.781Z,9.747459
2023-02-24T05:08:52.789Z,9.747527
2023-02-24T05:09:52.759Z,9.747144
2023-02-24T05:10:52.758Z,9.747091
2023-02-24T05:11:52.748Z,9.747219
2023-02-24T05:12:52.730Z,9.747268
2023-02-24T05:13:52.754Z,9.747230
2023-02-24T05:14:52.714Z,9.747391
2023-02-24T05:15:52.757Z,9.747279
2023-02-24T05:16:52.697Z,9.747167
2023-02-24T05:17:52.694Z,9.747120
2023-02-24T05:18:52.725Z,9.747231
2023-02-24T05:19:52.685Z,9.747117
2023-02-24T05:20:52.667Z,9.747226
2023-02-24T05:21:52.667Z,9.747435
2023-02-24T05:22:52.672Z,9.747518
2023-02-24T05:23:52.696Z,9.747415
2023-02-24T05:24:52.638Z,9.747320
2023-02-24T05:25:52.635Z,9.747257
2023-02-24T05:26:52.625Z,9.747323
2023-02-24T05:27:52.617Z,9.747332
2023-02-24T05:28:52.649Z,9.747451
2023-02-24T05:29:54.713Z,9.747350
2023-02-24T05:30:52.649Z,9.747331
2023-02-24T05:31:52.654Z,9.747523
2023-02-24T05:32:52.582Z,9.747313
2023-02-24T05:33:52.604Z,9.747428
2023-02-24T05:34:52.569Z,9.747294
2023-02-24T05:35:52.563Z,9.747400
2023-02-24T05:36:52.556Z,9.747364
2023-02-24T05:37:52.551Z,9.747395
2023-02-24T05:38:54.535Z,9.747398
2023-02-24T05:39:52.532Z,9.747412
2023-02-24T05:40:52.518Z,9.747397
2023-02-24T05:41:52.514Z,9.747319
2023-02-24T05:42:52.520Z,9.747327
2023-02-24T05:43:52.524Z,9.747376
2023-02-24T05:44:52.490Z,9.747431
2023-02-24T05:45:52.482Z,9.747366
2023-02-24T05:46:52.528Z,9.747477
2023-02-24T05:47:52.477Z,9.747515
2023-02-24T05:48:52.487Z,9.747616
2023-02-24T05:49:52.481Z,9.747623
2023-02-24T05:50:52.444Z,9.747610
2023-02-24T05:51:52.444Z,9.747264
2023-02-24T05:52:52.434Z,9.747128
2023-02-24T05:53:52.451Z,9.747387
2023-02-24T05:54:52.411Z,9.747402
2023-02-24T05:55:52.417Z,9.747454
2023-02-24T05:56:52.417Z,9.747494
2023-02-24T05:57:52.392Z,9.747355
2023-02-24T05:58:54.680Z,9.747309
2023-02-24T05:59:52.381Z,9.747542
2023-02-24T06:00:52.383Z,9.747134
2023-02-24T06:01:52.441Z,9.747241
2023-02-24T06:02:52.390Z,9.747141
2023-02-24T06:03:52.376Z,9.747303
2023-02-24T06:04:52.336Z,9.747223
2023-02-24T06:05:52.329Z,9.747279
2023-02-24T06:06:52.329Z,9.747392
2023-02-24T06:07:52.318Z,9.747458
2023-02-24T06:08:52.336Z,9.747263
2023-02-24T06:09:52.300Z,9.747390
2023-02-24T06:10:52.294Z,9.747239
2023-02-24T06:11:52.323Z,9.747333
2023-02-24T06:12:54.497Z,9.747609
2023-02-24T06:13:52.302Z,9.747819
2023-02-24T06:14:52.270Z,9.747506
2023-02-24T06:15:52.259Z,9.747280
2023-02-24T06:16:52.251Z,9.747555
2023-02-24T06:17:52.244Z,9.747668
2023-02-24T06:18:52.267Z,9.747382
2023-02-24T06:19:52.223Z,9.747325
2023-02-24T06:20:52.217Z,9.747409
2023-02-24T06:21:52.224Z,9.747217
2023-02-24T06:22:52.203Z,9.747180
2023-02-24T06:23:52.195Z,9.747480
2023-02-24T06:24:52.215Z,9.747469
2023-02-24T06:25:52.187Z,9.747382
2023-02-24T06:26:52.172Z,9.747367
2023-02-24T06:27:52.166Z,9.747338
2023-02-24T06:28:52.168Z,9.747312
2023-02-24T06:29:52.174Z,9.747238
2023-02-24T06:30:52.172Z,9.747391
2023-02-24T06:31:52.204Z,9.747322
2023-02-24T06:32:52.161Z,9.747247
2023-02-24T06:33:52.126Z,9.747318
2023-02-24T06:34:52.137Z,9.747190
2023-02-24T06:35:52.100Z,9.747350
2023-02-24T06:36:52.103Z,9.747475
2023-02-24T06:37:52.095Z,9.747546
2023-02-24T06:38:52.081Z,9.747431
2023-02-24T06:39:52.134Z,9.747392
2023-02-24T06:40:52.064Z,9.747492
2023-02-24T06:41:52.067Z,9.747310
2023-02-24T06:42:52.056Z,9.747486
2023-02-24T06:43:52.052Z,9.747431
2023-02-24T06:44:52.066Z,9.747260
2023-02-24T06:45:52.044Z,9.747588
2023-02-24T06:46:52.026Z,9.747381
2023-02-24T06:47:52.021Z,9.747442
2023-02-24T06:48:52.014Z,9.747257
2023-02-24T06:49:52.041Z,9.747324
2023-02-24T06:50:52.004Z,9.747493
2023-02-24T06:51:52.048Z,9.747466
2023-02-24T06:52:51.977Z,9.747490
2023-02-24T06:53:51.973Z,9.747306
2023-02-24T06:54:52.018Z,9.747170
2023-02-24T06:55:51.976Z,9.747213
2023-02-24T06:56:51.949Z,9.747352
2023-02-24T06:57:51.941Z,9.747197
2023-02-24T06:58:51.930Z,9.747307
2023-02-24T06:59:51.959Z,9.747275
2023-02-24T07:00:51.963Z,9.747266
2023-02-24T07:01:51.914Z,9.746994
2023-02-24T07:02:51.917Z,9.747099
2023-02-24T07:03:51.945Z,9.747293
2023-02-24T07:04:51.919Z,9.747575
2023-02-24T07:05:51.882Z,9.747307
2023-02-24T07:06:51.875Z,9.747317
2023-02-24T07:07:51.891Z,9.747170
2023-02-24T07:08:51.862Z,9.747220
2023-02-24T07:09:51.882Z,9.747386
2023-02-24T07:10:51.867Z,9.747445
2023-02-24T07:11:51.844Z,9.747592
2023-02-24T07:12:51.825Z,9.747490
2023-02-24T07:13:51.818Z,9.747492
2023-02-24T07:14:51.847Z,9.747509
2023-02-24T07:15:51.808Z,9.747502
2023-02-24T07:16:51.861Z,9.747548
2023-02-24T07:17:51.789Z,9.747810
2023-02-24T07:18:51.785Z,9.747711
2023-02-24T07:19:51.804Z,9.747560
2023-02-24T07:20:51.796Z,9.747402
2023-02-24T07:21:51.763Z,9.747340
2023-02-24T07:22:51.755Z,9.747469
2023-02-24T07:23:51.754Z,9.747334
2023-02-24T07:24:51.765Z,9.747605
2023-02-24T07:25:51.743Z,9.747224
2023-02-24T07:26:51.774Z,9.747237
2023-02-24T07:27:51.717Z,9.747391
2023-02-24T07:28:51.715Z,9.747506
2023-02-24T07:29:53.213Z,9.747228
2023-02-24T07:30:52.782Z,9.747082
2023-02-24T07:31:51.802Z,9.747355
2023-02-24T07:32:51.718Z,9.747408
2023-02-24T07:33:51.669Z,9.747521
2023-02-24T07:34:51.701Z,9.747424
2023-02-24T07:35:51.665Z,9.747407
2023-02-24T07:36:51.652Z,9.747385
2023-02-24T07:37:51.643Z,9.747412
2023-02-24T07:38:51.642Z,9.747512
2023-02-24T07:39:51.661Z,9.747545
2023-02-24T07:40:51.622Z,9.747504
2023-02-24T07:41:51.611Z,9.747572
2023-02-24T07:42:51.607Z,9.747659
2023-02-24T07:43:51.602Z,9.747622
2023-02-24T07:44:52.012Z,9.747466
2023-02-24T07:45:51.620Z,9.747429
2023-02-24T07:46:51.580Z,9.747227
2023-02-24T07:47:51.568Z,9.747424
2023-02-24T07:48:51.552Z,9.747421
2023-02-24T07:49:52.580Z,9.747362
2023-02-24T07:50:51.537Z,9.747198
2023-02-24T07:51:51.530Z,9.747286
2023-02-24T07:52:51.527Z,9.747461
2023-02-24T07:53:52.344Z,9.747489
2023-02-24T07:54:52.532Z,9.747564
2023-02-24T07:55:51.486Z,9.747557
2023-02-24T07:56:52.489Z,9.747572
2023-02-24T07:57:51.487Z,9.747521
2023-02-24T07:58:51.477Z,9.747522
2023-02-24T07:59:51.508Z,9.747412
2023-02-24T08:00:51.458Z,9.747588
2023-02-24T08:01:51.466Z,9.747610
2023-02-24T08:02:51.510Z,9.747446
2023-02-24T08:03:51.439Z,9.747514
2023-02-24T08:04:51.555Z,9.747482
2023-02-24T08:05:51.453Z,9.747564
2023-02-24T08:06:51.424Z,9.747469
2023-02-24T08:07:51.411Z,9.747482
2023-02-24T08:08:51.401Z,9.747532
2023-02-24T08:09:51.416Z,9.747532
2023-02-24T08:10:51.381Z,9.747511
2023-02-24T08:11:51.377Z,9.747481
2023-02-24T08:12:51.370Z,9.747556
2023-02-24T08:13:51.368Z,9.747574
2023-02-24T08:14:51.623Z,9.747511
2023-02-24T08:15:51.510Z,9.747484
2023-02-24T08:16:51.349Z,9.747505
2023-02-24T08:17:51.340Z,9.747523
2023-02-24T08:18:51.327Z,9.747473
2023-02-24T08:19:51.342Z,9.747397
2023-02-24T08:20:51.314Z,9.747427
2023-02-24T08:21:51.299Z,9.747470
2023-02-24T08:22:51.285Z,9.747377
2023-02-24T08:23:51.289Z,9.747427
2023-02-24T08:24:51.304Z,9.747388
2023-02-24T08:25:51.277Z,9.747460
2023-02-24T08:26:51.259Z,9.747537
2023-02-24T08:28:06.030Z,9.747516
2023-02-24T08:28:53.247Z,9.747432
2023-02-24T08:29:51.269Z,9.747527
2023-02-24T08:30:51.333Z,9.747588
2023-02-24T08:31:51.333Z,9.747681
2023-02-24T08:32:51.297Z,9.747694
2023-02-24T08:33:51.279Z,9.747705
2023-02-24T08:34:51.247Z,9.747548
2023-02-24T08:35:51.215Z,9.747626
2023-02-24T08:36:51.202Z,9.747672
2023-02-24T08:37:51.328Z,9.747721
2023-02-24T08:38:51.181Z,9.747723
2023-02-24T08:39:51.172Z,9.747654
2023-02-24T08:40:51.212Z,9.747615
2023-02-24T08:41:51.163Z,9.747671
2023-02-24T08:42:51.152Z,9.747810
2023-02-24T08:43:51.169Z,9.747712
2023-02-24T08:44:51.138Z,9.747702
2023-02-24T08:45:51.175Z,9.747649
2023-02-24T08:46:51.234Z,9.747572
2023-02-24T08:47:51.117Z,9.747649
2023-02-24T08:48:51.106Z,9.747660
2023-02-24T08:49:51.110Z,9.747623
2023-02-24T08:50:51.163Z,9.747615
2023-02-24T08:51:51.091Z,9.747561
2023-02-24T08:52:51.080Z,9.747596
2023-02-24T08:53:51.069Z,9.747641
2023-02-24T08:54:51.056Z,9.747637
2023-02-24T08:55:51.089Z,9.747643
2023-02-24T08:56:51.043Z,9.747699
2023-02-24T08:57:53.423Z,9.747655
2023-02-24T08:58:51.028Z,9.747642
2023-02-24T08:59:51.024Z,9.747630
2023-02-24T09:00:51.099Z,9.747529
2023-02-24T09:02:03.637Z,9.747496
2023-02-24T09:02:53.002Z,9.747472
2023-02-24T09:03:50.996Z,9.747538
2023-02-24T09:04:51.021Z,9.747540
2023-02-24T09:05:51.006Z,9.747500
2023-02-24T09:06:53.844Z,9.747430
2023-02-24T09:07:50.968Z,9.747415
2023-02-24T09:08:50.949Z,9.747431
2023-02-24T09:09:51.964Z,9.747458
2023-02-24T09:10:50.956Z,9.747470
2023-02-24T09:11:51.938Z,9.747527
2023-02-24T09:12:50.928Z,9.747536
2023-02-24T09:13:50.925Z,9.747461
2023-02-24T09:14:50.917Z,9.747463
2023-02-24T09:15:50.945Z,9.747473
2023-02-24T09:16:50.900Z,9.747471
2023-02-24T09:17:50.899Z,9.747457
2023-02-24T09:18:50.881Z,9.747432
2023-02-24T09:19:50.885Z,9.747509
2023-02-24T09:20:50.903Z,9.747502
2023-02-24T09:21:50.859Z,9.747425
2023-02-24T09:22:50.854Z,9.747468
2023-02-24T09:23:50.842Z,9.747512
2023-02-24T09:24:50.846Z,9.747478
2023-02-24T09:25:50.861Z,9.747540
2023-02-24T09:26:50.844Z,9.747468
2023-02-24T09:27:50.819Z,9.747544
2023-02-24T09:28:50.865Z,9.747473
2023-02-24T09:29:50.794Z,9.747441
2023-02-24T09:30:51.005Z,9.747432
2023-02-24T09:31:51.907Z,9.747488
2023-02-24T09:32:50.902Z,9.747489
2023-02-24T09:33:50.780Z,9.747446
2023-02-24T09:34:50.762Z,9.747484
2023-02-24T09:35:50.756Z,9.747490
2023-02-24T09:36:50.763Z,9.747547
2023-02-24T09:37:50.739Z,9.747542
2023-02-24T09:38:50.733Z,9.747444
2023-02-24T09:39:50.723Z,9.747507
2023-02-24T09:40:50.712Z,9.747457
2023-02-24T09:41:50.742Z,9.747454
2023-02-24T09:42:50.715Z,9.747510
2023-02-24T09:43:50.702Z,9.747517
2023-02-24T09:44:50.687Z,9.747465
2023-02-24T09:45:50.832Z,9.747410
2023-02-24T09:46:50.830Z,9.747395
2023-02-24T09:47:50.662Z,9.747444
2023-02-24T09:48:50.650Z,9.747513
2023-02-24T09:49:50.674Z,9.747336
2023-02-24T09:51:02.530Z,9.747362
2023-02-24T09:51:52.670Z,9.747493
2023-02-24T09:52:52.179Z,9.747545
2023-02-24T09:53:50.610Z,9.747473
2023-02-24T09:54:50.608Z,9.747379
2023-02-24T09:55:50.609Z,9.747421
2023-02-24T09:56:50.637Z,9.747426
2023-02-24T09:57:50.579Z,9.747289
2023-02-24T09:58:51.591Z,9.747314
2023-02-24T09:59:50.575Z,9.747108
2023-02-24T10:00:50.594Z,9.747300
2023-02-24T10:01:50.583Z,9.747354
2023-02-24T10:02:50.550Z,9.747518
2023-02-24T10:03:50.542Z,9.747316
2023-02-24T10:04:50.529Z,9.747310
2023-02-24T10:05:50.529Z,9.747269
2023-02-24T10:06:50.549Z,9.747246
2023-02-24T10:07:50.505Z,9.747252
2023-02-24T10:08:50.521Z,9.747300
2023-02-24T10:09:50.492Z,9.747308
2023-02-24T10:10:50.485Z,9.747445
2023-02-24T10:11:51.502Z,9.747529
2023-02-24T10:12:50.466Z,9.747339
2023-02-24T10:13:50.465Z,9.747425
2023-02-24T10:14:51.608Z,9.747340
2023-02-24T10:15:57.024Z,9.747372
2023-02-24T10:16:52.523Z,9.747399
2023-02-24T10:17:50.441Z,9.747379
2023-02-24T10:18:50.439Z,9.747420
2023-02-24T10:19:50.428Z,9.747461
2023-02-24T10:20:50.494Z,9.747512
2023-02-24T10:21:50.432Z,9.747478
2023-02-24T10:22:50.577Z,9.747416
2023-02-24T10:23:54.915Z,9.747419
2023-02-24T10:24:51.388Z,9.747458
2023-02-24T10:25:50.371Z,9.747414
2023-02-24T10:26:59.970Z,9.747351
2023-02-24T10:27:52.370Z,9.747358
2023-02-24T10:28:50.343Z,9.747514
2023-02-24T10:29:51.342Z,9.747293
2023-02-24T10:30:50.398Z,9.747252
2023-02-24T10:31:50.509Z,9.747276
2023-02-24T10:32:50.402Z,9.747331
2023-02-24T10:33:50.360Z,9.747481
2023-02-24T10:34:50.302Z,9.747534
2023-02-24T10:35:50.295Z,9.747286
2023-02-24T10:36:50.336Z,9.747469
2023-02-24T10:37:50.283Z,9.747248
2023-02-24T10:38:50.275Z,9.747316
2023-02-24T10:39:51.901Z,9.747142
2023-02-24T10:40:51.259Z,9.747135
2023-02-24T10:41:50.310Z,9.747331
2023-02-24T10:42:50.250Z,9.747569
2023-02-24T10:43:50.259Z,9.747414
2023-02-24T10:45:01.178Z,9.747013
2023-02-24T10:45:52.258Z,9.747219
2023-02-24T10:46:50.289Z,9.747398
2023-02-24T10:47:50.236Z,9.747259
2023-02-24T10:48:50.195Z,9.747406
2023-02-24T10:49:50.220Z,9.747231
2023-02-24T10:50:55.926Z,9.747256
2023-02-24T10:51:52.186Z,9.747334
2023-02-24T10:52:50.205Z,9.747369
2023-02-24T10:53:50.229Z,9.747384
2023-02-24T10:54:50.177Z,9.747472
2023-02-24T10:55:50.152Z,9.747700
2023-02-24T10:56:50.142Z,9.747655
2023-02-24T10:57:58.609Z,9.747626
2023-02-24T10:58:52.121Z,9.747652
2023-02-24T10:59:50.205Z,9.747329
2023-02-24T11:00:50.132Z,9.747396
2023-02-24T11:01:50.141Z,9.747392
2023-02-24T11:02:50.150Z,9.747341
2023-02-24T11:03:50.083Z,9.747446
2023-02-24T11:04:50.073Z,9.747383
2023-02-24T11:05:50.067Z,9.747375
2023-02-24T11:06:50.064Z,9.747252
2023-02-24T11:07:50.073Z,9.747633
2023-02-24T11:08:51.071Z,9.747437
2023-02-24T11:09:50.043Z,9.747390
2023-02-24T11:10:50.023Z,9.747512
2023-02-24T11:11:50.028Z,9.747315
2023-02-24T11:12:53.571Z,9.747186
2023-02-24T11:13:50.995Z,9.747211
2023-02-24T11:14:50.002Z,9.747375
2023-02-24T11:15:50.016Z,9.747237
2023-02-24T11:16:49.986Z,9.747322
2023-02-24T11:17:50.033Z,9.747360
2023-02-24T11:18:50.013Z,9.747437
2023-02-24T11:19:49.953Z,9.747387
2023-02-24T11:20:50.187Z,9.747624
2023-02-24T11:21:50.939Z,9.747458
2023-02-24T11:22:49.958Z,9.747603
2023-02-24T11:23:49.926Z,9.747447
2023-02-24T11:24:49.920Z,9.747187
2023-02-24T11:25:49.927Z,9.747472
2023-02-24T11:26:49.903Z,9.747502
2023-02-24T11:27:49.944Z,9.747466
2023-02-24T11:28:49.894Z,9.747538
2023-02-24T11:29:49.887Z,9.747280
2023-02-24T11:30:49.952Z,9.747362
2023-02-24T11:31:49.993Z,9.747574
2023-02-24T11:32:49.988Z,9.747539
2023-02-24T11:33:49.847Z,9.747520
2023-02-24T11:34:49.844Z,9.747567
2023-02-24T11:35:49.829Z,9.747420
2023-02-24T11:36:49.816Z,9.747592
2023-02-24T11:37:49.812Z,9.747620
2023-02-24T11:38:49.831Z,9.747570
2023-02-24T11:39:49.805Z,9.747363
2023-02-24T11:40:49.784Z,9.747477
2023-02-24T11:41:49.784Z,9.747537
2023-02-24T11:42:49.777Z,9.747413
2023-02-24T11:43:49.796Z,9.747495
2023-02-24T11:44:49.765Z,9.747458